sensor_id;sensor_type;location;lat;lon;timestamp;temperature;humidity
44894;DHT22;30625;52.206;21.030;2024-02-21T00:01:50;6.00;99.90
44894;DHT22;30625;52.206;21.030;2024-02-21T00:04:16;5.90;99.90
44894;DHT22;30625;52.206;21.030;2024-02-21T00:06:42;6.10;99.90
44894;DHT22;30625;52.206;21.030;2024-02-21T00:09:07;5.70;99.90
44894;DHT22;30625;52.206;21.030;2024-02-21T00:11:35;5.30;99.90
44894;DHT22;30625;52.206;21.030;2024-02-21T00:14:00;5.80;99.90
44894;DHT22;30625;52.206;21.030;2024-02-21T00:16:26;5.40;99.90
44894;DHT22;30625;52.206;21.030;2024-02-21T00:18:52;5.60;99.90
44894;DHT22;30625;52.206;21.030;2024-02-21T00:21:17;5.40;99.90
44894;DHT22;30625;52.206;21.030;2024-02-21T00:23:44;5.70;99.90
44894;DHT22;30625;52.206;21.030;2024-02-21T00:26:15;5.40;99.90
44894;DHT22;30625;52.206;21.030;2024-02-21T00:28:40;5.80;99.90
44894;DHT22;30625;52.206;21.030;2024-02-21T00:31:06;5.40;99.90
44894;DHT22;30625;52.206;21.030;2024-02-21T00:33:32;5.50;99.90
44894;DHT22;30625;52.206;21.030;2024-02-21T00:35:58;5.50;99.90
44894;DHT22;30625;52.206;21.030;2024-02-21T00:38:23;5.50;99.90
44894;DHT22;30625;52.206;21.030;2024-02-21T00:40:49;5.20;99.90
44894;DHT22;30625;52.206;21.030;2024-02-21T00:43:14;5.40;99.90
44894;DHT22;30625;52.206;21.030;2024-02-21T00:45:40;5.50;99.90
44894;DHT22;30625;52.206;21.030;2024-02-21T00:48:06;5.50;99.90
44894;DHT22;30625;52.206;21.030;2024-02-21T00:50:32;5.50;99.90
44894;DHT22;30625;52.206;21.030;2024-02-21T00:52:58;5.50;99.90
44894;DHT22;30625;52.206;21.030;2024-02-21T00:55:23;5.40;99.90
44894;DHT22;30625;52.206;21.030;2024-02-21T00:57:49;5.50;99.90
44894;DHT22;30625;52.206;21.030;2024-02-21T01:00:15;5.50;99.90
44894;DHT22;30625;52.206;21.030;2024-02-21T01:02:41;5.50;99.90
44894;DHT22;30625;52.206;21.030;2024-02-21T01:05:07;6.20;99.90
44894;DHT22;30625;52.206;21.030;2024-02-21T01:07:32;5.60;99.90
44894;DHT22;30625;52.206;21.030;2024-02-21T01:09:58;5.60;99.90
44894;DHT22;30625;52.206;21.030;2024-02-21T01:12:24;5.60;99.90
44894;DHT22;30625;52.206;21.030;2024-02-21T01:14:49;5.60;99.90
44894;DHT22;30625;52.206;21.030;2024-02-21T01:17:15;5.70;99.90
44894;DHT22;30625;52.206;21.030;2024-02-21T01:19:41;5.50;99.90
44894;DHT22;30625;52.206;21.030;2024-02-21T01:22:07;5.50;99.90
44894;DHT22;30625;52.206;21.030;2024-02-21T01:24:33;5.50;99.90
44894;DHT22;30625;52.206;21.030;2024-02-21T01:26:59;5.50;99.90
44894;DHT22;30625;52.206;21.030;2024-02-21T01:29:25;5.50;99.90
44894;DHT22;30625;52.206;21.030;2024-02-21T01:31:51;5.50;99.90
44894;DHT22;30625;52.206;21.030;2024-02-21T01:34:16;5.60;99.90
44894;DHT22;30625;52.206;21.030;2024-02-21T01:36:42;5.60;99.90
44894;DHT22;30625;52.206;21.030;2024-02-21T01:39:08;5.60;99.90
44894;DHT22;30625;52.206;21.030;2024-02-21T01:41:33;5.60;99.90
44894;DHT22;30625;52.206;21.030;2024-02-21T01:43:59;5.60;99.90
44894;DHT22;30625;52.206;21.030;2024-02-21T01:46:25;5.60;99.90
44894;DHT22;30625;52.206;21.030;2024-02-21T01:48:56;5.60;99.90
44894;DHT22;30625;52.206;21.030;2024-02-21T01:51:23;5.50;99.90
44894;DHT22;30625;52.206;21.030;2024-02-21T01:53:51;5.60;99.90
44894;DHT22;30625;52.206;21.030;2024-02-21T01:56:17;5.60;99.90
44894;DHT22;30625;52.206;21.030;2024-02-21T01:58:43;5.60;99.90
44894;DHT22;30625;52.206;21.030;2024-02-21T02:01:10;5.60;99.90
44894;DHT22;30625;52.206;21.030;2024-02-21T02:03:36;5.60;99.90
44894;DHT22;30625;52.206;21.030;2024-02-21T02:06:05;5.60;99.90
44894;DHT22;30625;52.206;21.030;2024-02-21T02:08:34;5.60;99.90
44894;DHT22;30625;52.206;21.030;2024-02-21T02:11:00;5.60;99.90
44894;DHT22;30625;52.206;21.030;2024-02-21T02:13:26;5.50;99.90
44894;DHT22;30625;52.206;21.030;2024-02-21T02:15:52;5.50;99.90
44894;DHT22;30625;52.206;21.030;2024-02-21T02:18:19;5.50;99.90
44894;DHT22;30625;52.206;21.030;2024-02-21T02:20:45;5.50;99.90
44894;DHT22;30625;52.206;21.030;2024-02-21T02:25:50;5.50;99.90
44894;DHT22;30625;52.206;21.030;2024-02-21T02:28:20;5.60;99.90
44894;DHT22;30625;52.206;21.030;2024-02-21T02:30:46;5.60;99.90
44894;DHT22;30625;52.206;21.030;2024-02-21T02:33:12;5.60;99.90
44894;DHT22;30625;52.206;21.030;2024-02-21T02:35:38;5.60;99.90
44894;DHT22;30625;52.206;21.030;2024-02-21T02:38:04;6.20;99.90
44894;DHT22;30625;52.206;21.030;2024-02-21T02:40:30;5.60;99.90
44894;DHT22;30625;52.206;21.030;2024-02-21T02:42:55;5.60;99.90
44894;DHT22;30625;52.206;21.030;2024-02-21T02:45:22;5.70;99.90
44894;DHT22;30625;52.206;21.030;2024-02-21T02:47:49;5.60;99.90
44894;DHT22;30625;52.206;21.030;2024-02-21T02:50:14;5.70;99.90
44894;DHT22;30625;52.206;21.030;2024-02-21T02:52:40;5.70;99.90
44894;DHT22;30625;52.206;21.030;2024-02-21T02:55:06;5.70;99.90
44894;DHT22;30625;52.206;21.030;2024-02-21T02:57:32;5.70;99.90
44894;DHT22;30625;52.206;21.030;2024-02-21T02:59:58;5.70;99.90
44894;DHT22;30625;52.206;21.030;2024-02-21T03:02:24;5.60;99.90
44894;DHT22;30625;52.206;21.030;2024-02-21T03:04:50;5.60;99.90
44894;DHT22;30625;52.206;21.030;2024-02-21T03:07:16;5.60;99.90
44894;DHT22;30625;52.206;21.030;2024-02-21T03:09:42;5.60;99.90
44894;DHT22;30625;52.206;21.030;2024-02-21T03:12:08;5.60;99.90
44894;DHT22;30625;52.206;21.030;2024-02-21T03:14:34;5.60;99.90
44894;DHT22;30625;52.206;21.030;2024-02-21T03:17:01;5.60;99.90
44894;DHT22;30625;52.206;21.030;2024-02-21T03:19:27;5.60;99.90
44894;DHT22;30625;52.206;21.030;2024-02-21T03:21:52;5.70;99.90
44894;DHT22;30625;52.206;21.030;2024-02-21T03:24:19;5.70;99.90
44894;DHT22;30625;52.206;21.030;2024-02-21T03:26:44;6.20;99.90
44894;DHT22;30625;52.206;21.030;2024-02-21T03:29:13;5.60;99.90
44894;DHT22;30625;52.206;21.030;2024-02-21T03:31:39;5.60;99.90
44894;DHT22;30625;52.206;21.030;2024-02-21T03:34:05;5.70;99.90
44894;DHT22;30625;52.206;21.030;2024-02-21T03:36:31;5.60;99.90
44894;DHT22;30625;52.206;21.030;2024-02-21T03:38:57;5.60;99.90
44894;DHT22;30625;52.206;21.030;2024-02-21T03:41:22;5.60;99.90
44894;DHT22;30625;52.206;21.030;2024-02-21T03:43:48;5.50;99.90
44894;DHT22;30625;52.206;21.030;2024-02-21T03:46:15;5.50;99.90
44894;DHT22;30625;52.206;21.030;2024-02-21T03:48:40;5.50;99.90
44894;DHT22;30625;52.206;21.030;2024-02-21T03:51:06;5.40;99.90
44894;DHT22;30625;52.206;21.030;2024-02-21T03:53:32;6.10;99.90
44894;DHT22;30625;52.206;21.030;2024-02-21T03:56:00;5.40;99.90
44894;DHT22;30625;52.206;21.030;2024-02-21T03:58:28;5.40;99.90
44894;DHT22;30625;52.206;21.030;2024-02-21T04:00:54;5.30;99.90
44894;DHT22;30625;52.206;21.030;2024-02-21T04:03:19;5.40;99.90
44894;DHT22;30625;52.206;21.030;2024-02-21T04:05:45;5.40;99.90
44894;DHT22;30625;52.206;21.030;2024-02-21T04:08:11;5.40;99.90
44894;DHT22;30625;52.206;21.030;2024-02-21T04:10:37;5.40;99.90
44894;DHT22;30625;52.206;21.030;2024-02-21T04:13:05;5.40;99.90
44894;DHT22;30625;52.206;21.030;2024-02-21T04:15:31;5.50;99.90
44894;DHT22;30625;52.206;21.030;2024-02-21T04:17:57;5.40;99.90
44894;DHT22;30625;52.206;21.030;2024-02-21T04:20:23;5.40;99.90
44894;DHT22;30625;52.206;21.030;2024-02-21T04:22:49;5.40;99.90
44894;DHT22;30625;52.206;21.030;2024-02-21T04:25:15;5.40;99.90
44894;DHT22;30625;52.206;21.030;2024-02-21T04:27:41;5.40;99.90
44894;DHT22;30625;52.206;21.030;2024-02-21T04:30:07;5.50;99.90
44894;DHT22;30625;52.206;21.030;2024-02-21T04:32:33;5.50;99.90
44894;DHT22;30625;52.206;21.030;2024-02-21T04:34:59;5.40;99.90
44894;DHT22;30625;52.206;21.030;2024-02-21T04:37:24;5.50;99.90
44894;DHT22;30625;52.206;21.030;2024-02-21T04:39:50;5.50;99.90
44894;DHT22;30625;52.206;21.030;2024-02-21T04:42:16;5.50;99.90
44894;DHT22;30625;52.206;21.030;2024-02-21T04:44:42;5.50;99.90
44894;DHT22;30625;52.206;21.030;2024-02-21T04:47:08;5.50;99.90
44894;DHT22;30625;52.206;21.030;2024-02-21T04:49:34;5.50;99.90
44894;DHT22;30625;52.206;21.030;2024-02-21T04:52:00;5.50;99.90
44894;DHT22;30625;52.206;21.030;2024-02-21T04:54:26;5.50;99.90
44894;DHT22;30625;52.206;21.030;2024-02-21T04:56:51;5.50;99.90
44894;DHT22;30625;52.206;21.030;2024-02-21T04:59:17;5.50;99.90
44894;DHT22;30625;52.206;21.030;2024-02-21T05:01:43;5.60;99.90
44894;DHT22;30625;52.206;21.030;2024-02-21T05:04:09;5.60;99.90
44894;DHT22;30625;52.206;21.030;2024-02-21T05:06:39;5.70;99.90
44894;DHT22;30625;52.206;21.030;2024-02-21T05:09:08;5.70;99.90
44894;DHT22;30625;52.206;21.030;2024-02-21T05:11:35;5.70;99.90
44894;DHT22;30625;52.206;21.030;2024-02-21T05:14:01;5.60;99.90
44894;DHT22;30625;52.206;21.030;2024-02-21T05:16:27;5.70;99.90
44894;DHT22;30625;52.206;21.030;2024-02-21T05:18:52;5.70;99.90
44894;DHT22;30625;52.206;21.030;2024-02-21T05:21:18;5.70;99.90
44894;DHT22;30625;52.206;21.030;2024-02-21T05:23:44;5.80;99.90
44894;DHT22;30625;52.206;21.030;2024-02-21T05:26:10;6.00;99.90
44894;DHT22;30625;52.206;21.030;2024-02-21T05:28:36;5.90;99.90
44894;DHT22;30625;52.206;21.030;2024-02-21T05:31:02;5.90;99.90
44894;DHT22;30625;52.206;21.030;2024-02-21T05:33:27;5.90;99.90
44894;DHT22;30625;52.206;21.030;2024-02-21T05:35:53;5.80;99.90
44894;DHT22;30625;52.206;21.030;2024-02-21T05:38:19;5.90;99.90
44894;DHT22;30625;52.206;21.030;2024-02-21T05:40:45;5.90;99.90
44894;DHT22;30625;52.206;21.030;2024-02-21T05:43:10;5.80;99.90
44894;DHT22;30625;52.206;21.030;2024-02-21T05:45:36;5.80;99.90
44894;DHT22;30625;52.206;21.030;2024-02-21T05:48:03;5.80;99.90
44894;DHT22;30625;52.206;21.030;2024-02-21T05:50:29;5.80;99.90
44894;DHT22;30625;52.206;21.030;2024-02-21T05:52:55;5.80;99.90
44894;DHT22;30625;52.206;21.030;2024-02-21T05:55:21;5.90;99.90
44894;DHT22;30625;52.206;21.030;2024-02-21T05:57:47;5.80;99.90
44894;DHT22;30625;52.206;21.030;2024-02-21T06:00:13;5.80;99.90
44894;DHT22;30625;52.206;21.030;2024-02-21T06:02:39;5.80;99.90
44894;DHT22;30625;52.206;21.030;2024-02-21T06:05:06;5.80;99.90
44894;DHT22;30625;52.206;21.030;2024-02-21T06:07:35;5.70;99.90
44894;DHT22;30625;52.206;21.030;2024-02-21T06:10:02;5.90;99.90
44894;DHT22;30625;52.206;21.030;2024-02-21T06:12:28;5.90;99.90
44894;DHT22;30625;52.206;21.030;2024-02-21T06:14:54;5.90;99.90
44894;DHT22;30625;52.206;21.030;2024-02-21T10:43:01;8.00;99.90
44894;DHT22;30625;52.206;21.030;2024-02-21T10:45:31;8.30;99.90
44894;DHT22;30625;52.206;21.030;2024-02-21T10:48:13;8.40;99.90
44894;DHT22;30625;52.206;21.030;2024-02-21T10:51:06;8.40;99.90
44894;DHT22;30625;52.206;21.030;2024-02-21T10:53:42;8.40;99.90
44894;DHT22;30625;52.206;21.030;2024-02-21T10:58:46;8.40;99.90
44894;DHT22;30625;52.206;21.030;2024-02-21T11:01:12;8.40;99.90
44894;DHT22;30625;52.206;21.030;2024-02-21T11:03:43;8.40;99.90
44894;DHT22;30625;52.206;21.030;2024-02-21T11:06:13;8.40;99.90
44894;DHT22;30625;52.206;21.030;2024-02-21T11:08:39;8.40;99.90
44894;DHT22;30625;52.206;21.030;2024-02-21T11:11:08;8.40;99.90
44894;DHT22;30625;52.206;21.030;2024-02-21T11:13:37;8.40;99.90
44894;DHT22;30625;52.206;21.030;2024-02-21T11:16:29;8.50;99.90
44894;DHT22;30625;52.206;21.030;2024-02-21T11:19:25;8.40;99.90
44894;DHT22;30625;52.206;21.030;2024-02-21T11:21:57;8.30;99.90
44894;DHT22;30625;52.206;21.030;2024-02-21T11:24:35;8.30;99.90
44894;DHT22;30625;52.206;21.030;2024-02-21T11:27:13;8.30;99.90
44894;DHT22;30625;52.206;21.030;2024-02-21T11:29:59;8.30;99.90
44894;DHT22;30625;52.206;21.030;2024-02-21T11:32:28;8.20;99.90
44894;DHT22;30625;52.206;21.030;2024-02-21T11:35:01;8.20;99.90
44894;DHT22;30625;52.206;21.030;2024-02-21T11:37:33;8.00;99.90
44894;DHT22;30625;52.206;21.030;2024-02-21T11:40:07;8.00;99.90
44894;DHT22;30625;52.206;21.030;2024-02-21T11:42:36;7.90;99.90
44894;DHT22;30625;52.206;21.030;2024-02-21T11:45:14;8.00;99.90
44894;DHT22;30625;52.206;21.030;2024-02-21T11:47:43;7.90;99.90
44894;DHT22;30625;52.206;21.030;2024-02-21T11:50:13;7.90;99.90
44894;DHT22;30625;52.206;21.030;2024-02-21T11:52:41;7.80;99.90
44894;DHT22;30625;52.206;21.030;2024-02-21T11:55:13;7.70;99.90
44894;DHT22;30625;52.206;21.030;2024-02-21T11:57:43;7.70;99.90
44894;DHT22;30625;52.206;21.030;2024-02-21T12:02:55;7.60;99.90
44894;DHT22;30625;52.206;21.030;2024-02-21T12:05:28;7.60;99.90
44894;DHT22;30625;52.206;21.030;2024-02-21T12:13:11;7.40;99.90
44894;DHT22;30625;52.206;21.030;2024-02-21T12:15:56;7.40;99.90
44894;DHT22;30625;52.206;21.030;2024-02-21T12:18:31;7.60;99.90
44894;DHT22;30625;52.206;21.030;2024-02-21T12:21:17;7.60;99.90
44894;DHT22;30625;52.206;21.030;2024-02-21T12:23:47;7.40;99.90
44894;DHT22;30625;52.206;21.030;2024-02-21T12:26:12;7.10;99.90
44894;DHT22;30625;52.206;21.030;2024-02-21T12:31:12;7.30;99.90
44894;DHT22;30625;52.206;21.030;2024-02-21T12:33:39;7.30;99.90
44894;DHT22;30625;52.206;21.030;2024-02-21T12:36:07;7.40;99.90
44894;DHT22;30625;52.206;21.030;2024-02-21T12:46:24;7.30;99.90
44894;DHT22;30625;52.206;21.030;2024-02-21T12:48:55;7.30;99.90
44894;DHT22;30625;52.206;21.030;2024-02-21T12:51:32;7.30;99.90
44894;DHT22;30625;52.206;21.030;2024-02-21T12:54:00;7.50;99.90
44894;DHT22;30625;52.206;21.030;2024-02-21T12:59:04;7.30;99.90
44894;DHT22;30625;52.206;21.030;2024-02-21T13:01:33;7.30;99.90
44894;DHT22;30625;52.206;21.030;2024-02-21T13:04:11;7.30;99.90
44894;DHT22;30625;52.206;21.030;2024-02-21T13:06:39;7.20;99.90
44894;DHT22;30625;52.206;21.030;2024-02-21T13:11:36;7.30;99.90
44894;DHT22;30625;52.206;21.030;2024-02-21T13:14:05;7.30;99.90
44894;DHT22;30625;52.206;21.030;2024-02-21T13:16:41;7.40;99.90
44894;DHT22;30625;52.206;21.030;2024-02-21T13:21:57;7.30;99.90
44894;DHT22;30625;52.206;21.030;2024-02-21T13:24:48;7.30;99.90
44894;DHT22;30625;52.206;21.030;2024-02-21T13:27:38;7.20;99.90
44894;DHT22;30625;52.206;21.030;2024-02-21T13:30:18;7.70;99.90
44894;DHT22;30625;52.206;21.030;2024-02-21T13:32:44;7.30;99.90
44894;DHT22;30625;52.206;21.030;2024-02-21T13:35:16;7.30;99.90
44894;DHT22;30625;52.206;21.030;2024-02-21T13:37:43;7.50;99.90
44894;DHT22;30625;52.206;21.030;2024-02-21T13:40:18;7.30;99.90
44894;DHT22;30625;52.206;21.030;2024-02-21T13:42:45;7.30;99.90
44894;DHT22;30625;52.206;21.030;2024-02-21T13:47:41;7.30;99.90
44894;DHT22;30625;52.206;21.030;2024-02-21T13:50:08;7.30;99.90
44894;DHT22;30625;52.206;21.030;2024-02-21T13:52:38;7.30;99.90
44894;DHT22;30625;52.206;21.030;2024-02-21T13:55:11;7.30;99.90
44894;DHT22;30625;52.206;21.030;2024-02-21T13:57:40;7.30;99.90
44894;DHT22;30625;52.206;21.030;2024-02-21T14:00:52;7.30;99.90
44894;DHT22;30625;52.206;21.030;2024-02-21T14:16:30;7.30;99.90
44894;DHT22;30625;52.206;21.030;2024-02-21T14:18:56;7.30;99.90
44894;DHT22;30625;52.206;21.030;2024-02-21T14:21:22;7.30;99.90
44894;DHT22;30625;52.206;21.030;2024-02-21T14:23:51;7.30;99.90
44894;DHT22;30625;52.206;21.030;2024-02-21T14:34:38;7.30;99.90
44894;DHT22;30625;52.206;21.030;2024-02-21T14:37:05;7.40;99.90
44894;DHT22;30625;52.206;21.030;2024-02-21T14:39:32;7.30;99.90
44894;DHT22;30625;52.206;21.030;2024-02-21T14:42:01;7.50;99.90
44894;DHT22;30625;52.206;21.030;2024-02-21T14:44:27;7.30;99.90
44894;DHT22;30625;52.206;21.030;2024-02-21T14:46:53;7.30;99.90
44894;DHT22;30625;52.206;21.030;2024-02-21T14:49:18;7.30;99.90
44894;DHT22;30625;52.206;21.030;2024-02-21T14:51:44;7.30;99.90
44894;DHT22;30625;52.206;21.030;2024-02-21T14:54:10;7.30;99.90
44894;DHT22;30625;52.206;21.030;2024-02-21T14:56:36;7.30;99.90
44894;DHT22;30625;52.206;21.030;2024-02-21T14:59:02;7.30;99.90
44894;DHT22;30625;52.206;21.030;2024-02-21T15:01:31;7.30;99.90
44894;DHT22;30625;52.206;21.030;2024-02-21T15:04:04;7.50;99.90
44894;DHT22;30625;52.206;21.030;2024-02-21T15:06:32;7.30;99.90
44894;DHT22;30625;52.206;21.030;2024-02-21T15:09:08;7.30;99.90
44894;DHT22;30625;52.206;21.030;2024-02-21T15:11:34;7.30;99.90
44894;DHT22;30625;52.206;21.030;2024-02-21T15:14:00;7.20;99.90
44894;DHT22;30625;52.206;21.030;2024-02-21T15:16:28;7.30;99.90
44894;DHT22;30625;52.206;21.030;2024-02-21T15:18:55;7.30;99.90
44894;DHT22;30625;52.206;21.030;2024-02-21T15:21:25;7.30;99.90
44894;DHT22;30625;52.206;21.030;2024-02-21T15:24:00;7.30;99.90
44894;DHT22;30625;52.206;21.030;2024-02-21T15:26:31;7.70;99.90
44894;DHT22;30625;52.206;21.030;2024-02-21T15:28:58;7.30;99.90
44894;DHT22;30625;52.206;21.030;2024-02-21T15:33:59;7.40;99.90
44894;DHT22;30625;52.206;21.030;2024-02-21T15:36:26;7.40;99.90
44894;DHT22;30625;52.206;21.030;2024-02-21T15:38:54;7.30;99.90
44894;DHT22;30625;52.206;21.030;2024-02-21T15:41:21;7.50;99.90
44894;DHT22;30625;52.206;21.030;2024-02-21T15:46:24;7.50;99.90
44894;DHT22;30625;52.206;21.030;2024-02-21T15:48:53;7.50;99.90
44894;DHT22;30625;52.206;21.030;2024-02-21T15:51:21;7.50;99.90
44894;DHT22;30625;52.206;21.030;2024-02-21T16:07:42;7.50;99.90
44894;DHT22;30625;52.206;21.030;2024-02-21T16:10:09;7.50;99.90
44894;DHT22;30625;52.206;21.030;2024-02-21T16:12:37;7.50;99.90
44894;DHT22;30625;52.206;21.030;2024-02-21T16:15:15;7.50;99.90
44894;DHT22;30625;52.206;21.030;2024-02-21T16:17:40;7.60;99.90
44894;DHT22;30625;52.206;21.030;2024-02-21T16:20:07;7.60;99.90
44894;DHT22;30625;52.206;21.030;2024-02-21T16:22:36;7.60;99.90
44894;DHT22;30625;52.206;21.030;2024-02-21T16:25:03;7.60;99.90
44894;DHT22;30625;52.206;21.030;2024-02-21T16:27:58;7.60;99.90
44894;DHT22;30625;52.206;21.030;2024-02-21T16:30:27;7.50;99.90
44894;DHT22;30625;52.206;21.030;2024-02-21T16:32:56;7.50;99.90
44894;DHT22;30625;52.206;21.030;2024-02-21T16:35:23;7.50;99.90
44894;DHT22;30625;52.206;21.030;2024-02-21T16:38:00;7.50;99.90
44894;DHT22;30625;52.206;21.030;2024-02-21T16:40:28;7.50;99.90
44894;DHT22;30625;52.206;21.030;2024-02-21T16:42:54;7.50;99.90
44894;DHT22;30625;52.206;21.030;2024-02-21T16:45:26;7.50;99.90
44894;DHT22;30625;52.206;21.030;2024-02-21T16:47:53;7.50;99.90
44894;DHT22;30625;52.206;21.030;2024-02-21T16:50:24;7.50;99.90
44894;DHT22;30625;52.206;21.030;2024-02-21T16:52:51;7.50;99.90
44894;DHT22;30625;52.206;21.030;2024-02-21T16:55:18;7.50;99.90
44894;DHT22;30625;52.206;21.030;2024-02-21T16:57:44;7.50;99.90
44894;DHT22;30625;52.206;21.030;2024-02-21T17:00:10;7.40;99.90
44894;DHT22;30625;52.206;21.030;2024-02-21T17:02:40;7.30;99.90
44894;DHT22;30625;52.206;21.030;2024-02-21T17:05:09;7.30;99.90
44894;DHT22;30625;52.206;21.030;2024-02-21T17:07:37;7.30;99.90
44894;DHT22;30625;52.206;21.030;2024-02-21T17:10:03;7.00;99.90
44894;DHT22;30625;52.206;21.030;2024-02-21T17:12:33;7.20;99.90
44894;DHT22;30625;52.206;21.030;2024-02-21T17:15:22;7.20;99.90
44894;DHT22;30625;52.206;21.030;2024-02-21T17:17:53;7.20;99.90
44894;DHT22;30625;52.206;21.030;2024-02-21T17:20:18;7.20;99.90
44894;DHT22;30625;52.206;21.030;2024-02-21T17:22:44;7.20;99.90
44894;DHT22;30625;52.206;21.030;2024-02-21T17:25:11;7.20;99.90
44894;DHT22;30625;52.206;21.030;2024-02-21T17:27:38;7.10;99.90
44894;DHT22;30625;52.206;21.030;2024-02-21T17:30:04;7.10;99.90
44894;DHT22;30625;52.206;21.030;2024-02-21T17:32:31;7.10;99.90
44894;DHT22;30625;52.206;21.030;2024-02-21T17:34:57;7.10;99.90
44894;DHT22;30625;52.206;21.030;2024-02-21T17:37:23;7.00;99.90
44894;DHT22;30625;52.206;21.030;2024-02-21T17:39:48;7.10;99.90
44894;DHT22;30625;52.206;21.030;2024-02-21T17:42:15;7.10;99.90
44894;DHT22;30625;52.206;21.030;2024-02-21T17:44:42;7.10;99.90
44894;DHT22;30625;52.206;21.030;2024-02-21T17:47:11;7.10;99.90
44894;DHT22;30625;52.206;21.030;2024-02-21T17:49:39;7.10;99.90
44894;DHT22;30625;52.206;21.030;2024-02-21T17:52:10;7.10;99.90
44894;DHT22;30625;52.206;21.030;2024-02-21T17:54:37;7.10;99.90
44894;DHT22;30625;52.206;21.030;2024-02-21T17:57:05;7.10;99.90
44894;DHT22;30625;52.206;21.030;2024-02-21T17:59:31;7.10;99.90
44894;DHT22;30625;52.206;21.030;2024-02-21T18:01:57;7.10;99.90
44894;DHT22;30625;52.206;21.030;2024-02-21T18:04:24;7.10;99.90
44894;DHT22;30625;52.206;21.030;2024-02-21T18:06:50;7.10;99.90
44894;DHT22;30625;52.206;21.030;2024-02-21T18:09:16;7.10;99.90
44894;DHT22;30625;52.206;21.030;2024-02-21T18:11:41;7.10;99.90
44894;DHT22;30625;52.206;21.030;2024-02-21T18:14:07;7.10;99.90
44894;DHT22;30625;52.206;21.030;2024-02-21T18:16:33;7.10;99.90
44894;DHT22;30625;52.206;21.030;2024-02-21T18:19:02;7.10;99.90
44894;DHT22;30625;52.206;21.030;2024-02-21T18:21:29;7.10;99.90
44894;DHT22;30625;52.206;21.030;2024-02-21T18:23:55;7.10;99.90
44894;DHT22;30625;52.206;21.030;2024-02-21T18:26:21;7.10;99.90
44894;DHT22;30625;52.206;21.030;2024-02-21T18:28:49;7.10;99.90
44894;DHT22;30625;52.206;21.030;2024-02-21T18:31:16;7.10;99.90
44894;DHT22;30625;52.206;21.030;2024-02-21T18:33:42;7.20;99.90
44894;DHT22;30625;52.206;21.030;2024-02-21T18:36:11;7.10;99.90
44894;DHT22;30625;52.206;21.030;2024-02-21T18:38:37;7.10;99.90
44894;DHT22;30625;52.206;21.030;2024-02-21T18:41:04;7.10;99.90
44894;DHT22;30625;52.206;21.030;2024-02-21T18:43:30;7.00;99.90
44894;DHT22;30625;52.206;21.030;2024-02-21T18:45:57;7.10;99.90
44894;DHT22;30625;52.206;21.030;2024-02-21T18:48:24;7.10;99.90
44894;DHT22;30625;52.206;21.030;2024-02-21T18:50:55;6.80;99.90
44894;DHT22;30625;52.206;21.030;2024-02-21T18:53:23;6.90;99.90
44894;DHT22;30625;52.206;21.030;2024-02-21T18:55:49;7.00;99.90
44894;DHT22;30625;52.206;21.030;2024-02-21T18:58:15;7.10;99.90
44894;DHT22;30625;52.206;21.030;2024-02-21T19:00:41;7.20;99.90
44894;DHT22;30625;52.206;21.030;2024-02-21T19:03:07;7.10;99.90
44894;DHT22;30625;52.206;21.030;2024-02-21T19:05:33;7.10;99.90
44894;DHT22;30625;52.206;21.030;2024-02-21T19:10:35;7.10;99.90
44894;DHT22;30625;52.206;21.030;2024-02-21T19:13:02;7.00;99.90
44894;DHT22;30625;52.206;21.030;2024-02-21T19:15:30;7.10;99.90
44894;DHT22;30625;52.206;21.030;2024-02-21T19:17:56;7.10;99.90
44894;DHT22;30625;52.206;21.030;2024-02-21T19:20:24;7.10;99.90
44894;DHT22;30625;52.206;21.030;2024-02-21T19:22:50;7.10;99.90
44894;DHT22;30625;52.206;21.030;2024-02-21T19:25:17;7.10;99.90
44894;DHT22;30625;52.206;21.030;2024-02-21T19:27:47;7.10;99.90
44894;DHT22;30625;52.206;21.030;2024-02-21T19:30:13;7.10;99.90
44894;DHT22;30625;52.206;21.030;2024-02-21T19:32:39;7.10;99.90
44894;DHT22;30625;52.206;21.030;2024-02-21T19:35:05;7.10;99.90
44894;DHT22;30625;52.206;21.030;2024-02-21T19:37:39;7.10;99.90
44894;DHT22;30625;52.206;21.030;2024-02-21T19:40:07;7.20;99.90
44894;DHT22;30625;52.206;21.030;2024-02-21T19:42:33;7.10;99.90
44894;DHT22;30625;52.206;21.030;2024-02-21T19:44:59;7.20;99.90
44894;DHT22;30625;52.206;21.030;2024-02-21T19:47:24;7.20;99.90
44894;DHT22;30625;52.206;21.030;2024-02-21T19:49:53;7.20;99.90
44894;DHT22;30625;52.206;21.030;2024-02-21T19:52:19;7.20;99.90
44894;DHT22;30625;52.206;21.030;2024-02-21T19:54:45;7.20;99.90
44894;DHT22;30625;52.206;21.030;2024-02-21T19:57:11;7.20;99.90
44894;DHT22;30625;52.206;21.030;2024-02-21T19:59:38;7.20;99.90
44894;DHT22;30625;52.206;21.030;2024-02-21T20:02:04;7.20;99.90
44894;DHT22;30625;52.206;21.030;2024-02-21T20:04:30;7.30;99.90
44894;DHT22;30625;52.206;21.030;2024-02-21T20:06:56;7.30;99.90
44894;DHT22;30625;52.206;21.030;2024-02-21T20:09:23;7.20;99.90
44894;DHT22;30625;52.206;21.030;2024-02-21T20:11:48;7.20;99.90
44894;DHT22;30625;52.206;21.030;2024-02-21T20:14:15;7.20;99.90
44894;DHT22;30625;52.206;21.030;2024-02-21T20:16:43;7.30;99.90
44894;DHT22;30625;52.206;21.030;2024-02-21T20:19:10;7.30;99.90
44894;DHT22;30625;52.206;21.030;2024-02-21T20:21:40;7.30;99.90
44894;DHT22;30625;52.206;21.030;2024-02-21T20:24:09;7.30;99.90
44894;DHT22;30625;52.206;21.030;2024-02-21T20:26:39;7.30;99.90
44894;DHT22;30625;52.206;21.030;2024-02-21T20:29:13;7.30;99.90
44894;DHT22;30625;52.206;21.030;2024-02-21T20:31:41;7.30;99.90
44894;DHT22;30625;52.206;21.030;2024-02-21T20:34:14;7.30;99.90
44894;DHT22;30625;52.206;21.030;2024-02-21T20:36:46;7.30;99.90
44894;DHT22;30625;52.206;21.030;2024-02-21T20:39:12;7.30;99.90
44894;DHT22;30625;52.206;21.030;2024-02-21T20:41:40;7.30;99.90
44894;DHT22;30625;52.206;21.030;2024-02-21T20:44:15;7.30;99.90
44894;DHT22;30625;52.206;21.030;2024-02-21T20:46:42;7.30;99.90
44894;DHT22;30625;52.206;21.030;2024-02-21T20:49:08;7.30;99.90
44894;DHT22;30625;52.206;21.030;2024-02-21T20:51:34;7.30;99.90
44894;DHT22;30625;52.206;21.030;2024-02-21T20:54:00;7.30;99.90
44894;DHT22;30625;52.206;21.030;2024-02-21T20:56:25;7.40;99.90
44894;DHT22;30625;52.206;21.030;2024-02-21T20:58:52;7.30;99.90
44894;DHT22;30625;52.206;21.030;2024-02-21T21:01:19;7.40;99.90
44894;DHT22;30625;52.206;21.030;2024-02-21T21:03:46;7.40;99.90
44894;DHT22;30625;52.206;21.030;2024-02-21T21:06:12;7.40;99.90
44894;DHT22;30625;52.206;21.030;2024-02-21T21:08:38;7.40;99.90
44894;DHT22;30625;52.206;21.030;2024-02-21T21:11:05;7.30;99.90
44894;DHT22;30625;52.206;21.030;2024-02-21T21:13:30;7.30;99.90
44894;DHT22;30625;52.206;21.030;2024-02-21T21:16:01;7.30;99.90
44894;DHT22;30625;52.206;21.030;2024-02-21T21:18:27;7.30;99.90